Time;durP1;ratioP1;P1;durP2;ratioP2;P2;SDS_P1;SDS_P2;PMS_P1;PMS_P2;Temp;Humidity;BMP_temperature;BMP_pressure;BME280_temperature;BME280_humidity;BME280_pressure;Samples;Min_cycle;Max_cycle;Signal;HPM_P1;HPM_P2
2022/04/06 00:00:34;;;;;;;1.42;0.60;;;;;;;-148.16;100.00;58328.31;4793183;29;20061;-61
2022/04/06 00:03:25;;;;;;;2.63;0.70;;;;;;;-148.16;100.00;58328.31;4780927;29;20043;-61
2022/04/06 00:06:10;;;;;;;1.50;0.55;;;;;;;-148.16;100.00;58328.31;4805438;29;20054;-62
2022/04/06 00:08:55;;;;;;;1.20;0.60;;;;;;;-148.16;100.00;58328.31;4804927;29;20138;-62
2022/04/06 00:11:39;;;;;;;1.85;0.50;;;;;;;-148.16;100.00;58328.31;4805352;29;20115;-60
2022/04/06 00:15:03;;;;;;;2.88;0.70;;;;;;;-148.16;100.00;58328.31;4791068;29;20098;-61
2022/04/06 00:17:51;;;;;;;1.23;0.63;;;;;;;-148.16;100.00;58328.31;4771099;30;20066;-60
2022/04/06 00:20:44;;;;;;;0.73;0.52;;;;;;;-148.16;100.00;58328.31;4773501;30;20146;-60
2022/04/06 00:23:29;;;;;;;0.95;0.50;;;;;;;-148.16;100.00;58328.31;4785142;29;20066;-63
2022/04/06 00:26:14;;;;;;;0.75;0.47;;;;;;;-148.16;100.00;58328.31;4785138;30;20060;-61
2022/04/06 00:28:58;;;;;;;0.93;0.50;;;;;;;-148.16;100.00;58328.31;4785702;30;20093;-62
2022/04/06 00:31:43;;;;;;;0.60;0.30;;;;;;;-148.16;100.00;58328.31;4785314;30;20074;-61
2022/04/06 00:37:31;;;;;;;0.52;0.30;;;;;;;-148.16;100.00;58328.31;4785244;30;20416;-61
2022/04/06 00:40:17;;;;;;;1.13;0.50;;;;;;;-148.16;100.00;58328.31;4785478;30;20089;-62
2022/04/06 00:43:07;;;;;;;2.15;0.30;;;;;;;-148.16;100.00;58328.31;4804723;29;20440;-63
2022/04/06 00:45:51;;;;;;;0.60;0.30;;;;;;;-148.16;100.00;58328.31;4766406;29;20050;-60
2022/04/06 00:48:37;;;;;;;0.63;0.32;;;;;;;-148.16;100.00;58328.31;4816913;29;20054;-62
2022/04/06 00:51:24;;;;;;;0.95;0.40;;;;;;;-148.16;100.00;58328.31;4840277;29;20408;-63
2022/04/06 00:54:12;;;;;;;0.40;0.20;;;;;;;-148.16;100.00;58328.31;4841268;29;20405;-62
2022/04/06 00:56:59;;;;;;;0.93;0.40;;;;;;;-148.16;100.00;58328.31;4841005;29;20525;-60
2022/04/06 00:59:43;;;;;;;0.40;0.30;;;;;;;-148.16;100.00;58328.31;4827427;29;20054;-61
2022/04/06 01:02:28;;;;;;;0.30;0.30;;;;;;;-148.16;100.00;58328.31;4828145;29;20157;-60
2022/04/06 01:05:13;;;;;;;0.65;0.20;;;;;;;-148.16;100.00;58328.31;4840890;29;20122;-60
2022/04/06 01:08:00;;;;;;;0.30;0.10;;;;;;;-148.16;100.00;58328.31;4841486;29;20050;-60
2022/04/06 01:10:45;;;;;;;0.60;0.40;;;;;;;-148.16;100.00;58328.31;4831339;29;20125;-59
2022/04/06 01:13:30;;;;;;;0.30;0.22;;;;;;;-148.16;100.00;58328.31;4840467;29;20054;-62
2022/04/06 01:16:15;;;;;;;0.30;0.20;;;;;;;-148.16;100.00;58328.31;4827270;29;20057;-61
2022/04/06 01:18:59;;;;;;;0.45;0.20;;;;;;;-148.16;100.00;58328.31;4841094;29;20068;-62
2022/04/06 01:21:44;;;;;;;0.25;0.15;;;;;;;-148.16;100.00;58328.31;4844357;29;20053;-61
2022/04/06 01:24:29;;;;;;;0.55;0.22;;;;;;;-148.16;100.00;58328.31;4830417;29;20050;-61
2022/04/06 01:27:14;;;;;;;0.50;0.20;;;;;;;-148.16;100.00;58328.31;4844554;29;20511;-61
2022/04/06 01:29:59;;;;;;;0.60;0.30;;;;;;;-148.16;100.00;58328.31;4844307;29;20057;-62
2022/04/06 01:32:44;;;;;;;0.20;0.10;;;;;;;-148.16;100.00;58328.31;4844497;29;20089;-62
2022/04/06 01:35:29;;;;;;;0.40;0.32;;;;;;;-148.16;100.00;58328.31;4844269;29;20057;-61
2022/04/06 01:38:14;;;;;;;0.50;0.20;;;;;;;-148.16;100.00;58328.31;4843905;29;20069;-61
2022/04/06 01:40:58;;;;;;;0.40;0.20;;;;;;;-148.16;100.00;58328.31;4830110;29;20403;-60
2022/04/06 01:43:43;;;;;;;0.28;0.20;;;;;;;-148.16;100.00;58328.31;4844124;29;20045;-60
2022/04/06 01:46:28;;;;;;;0.65;0.30;;;;;;;-148.16;100.00;58328.31;4830811;29;20042;-62
2022/04/06 01:52:50;;;;;;;0.13;0.10;;;;;;;-148.16;100.00;58328.31;4844730;29;20513;-61
2022/04/06 01:55:35;;;;;;;0.50;0.20;;;;;;;-148.16;100.00;58328.31;4844699;29;20069;-61
2022/04/06 01:58:20;;;;;;;0.47;0.20;;;;;;;-148.16;100.00;58328.31;4830260;29;20038;-61
2022/04/06 02:01:04;;;;;;;0.30;0.20;;;;;;;-148.16;100.00;58328.31;4833991;29;20063;-61
2022/04/06 02:03:49;;;;;;;0.38;0.20;;;;;;;-148.16;100.00;58328.31;4796511;29;20054;-61
2022/04/06 02:06:34;;;;;;;2.15;0.20;;;;;;;-148.16;100.00;58328.31;4812396;29;20042;-62
2022/04/06 02:09:20;;;;;;;0.85;0.30;;;;;;;-148.16;100.00;58328.31;4800299;29;20046;-60
2022/04/06 02:12:09;;;;;;;0.20;0.15;;;;;;;-148.16;100.00;58328.31;4815819;29;20468;-61
2022/04/06 02:14:54;;;;;;;0.43;0.20;;;;;;;-148.16;100.00;58328.31;4814531;29;20050;-61
2022/04/06 02:17:39;;;;;;;0.45;0.15;;;;;;;-148.16;100.00;58328.31;4811143;29;20491;-61
2022/04/06 02:20:24;;;;;;;0.45;0.20;;;;;;;-148.16;100.00;58328.31;4825943;29;20063;-61
2022/04/06 02:23:10;;;;;;;0.20;0.10;;;;;;;-148.16;100.00;58328.31;4807928;29;20483;-61
2022/04/06 02:25:54;;;;;;;0.40;0.10;;;;;;;-148.16;100.00;58328.31;4810371;29;20058;-60
2022/04/06 02:28:39;;;;;;;0.40;0.20;;;;;;;-148.16;100.00;58328.31;4797439;29;20066;-61
2022/04/06 02:31:24;;;;;;;0.20;0.10;;;;;;;-148.16;100.00;58328.31;4814796;29;20050;-62
2022/04/06 02:34:09;;;;;;;0.20;0.10;;;;;;;-148.16;100.00;58328.31;4808963;29;20042;-60
2022/04/06 02:36:53;;;;;;;0.38;0.20;;;;;;;-148.16;100.00;58328.31;4825326;29;20403;-61
2022/04/06 02:39:38;;;;;;;0.20;0.10;;;;;;;-148.16;100.00;58328.31;4824966;29;20153;-60
2022/04/06 02:42:23;;;;;;;0.15;0.10;;;;;;;-148.16;100.00;58328.31;4824742;29;20042;-61
2022/04/06 02:45:09;;;;;;;0.13;0.10;;;;;;;-148.16;100.00;58328.31;4811135;29;20083;-60
2022/04/06 02:47:54;;;;;;;0.10;0.10;;;;;;;-148.16;100.00;58328.31;4824732;29;20471;-61
2022/04/06 02:50:38;;;;;;;0.30;0.10;;;;;;;-148.16;100.00;58328.31;4811073;29;20122;-62
2022/04/06 02:53:23;;;;;;;0.65;0.20;;;;;;;-148.16;100.00;58328.31;4810939;29;20383;-62
2022/04/06 02:56:08;;;;;;;0.35;0.10;;;;;;;-148.16;100.00;58328.31;4824810;29;20046;-61
2022/04/06 02:58:53;;;;;;;0.30;0.10;;;;;;;-148.16;100.00;58328.31;4810839;29;20070;-63
2022/04/06 03:01:37;;;;;;;0.63;0.10;;;;;;;-148.16;100.00;58328.31;4832309;29;20046;-62
2022/04/06 03:04:22;;;;;;;0.40;0.20;;;;;;;-148.16;100.00;58328.31;4815532;29;20055;-62
2022/04/06 03:07:07;;;;;;;0.57;0.17;;;;;;;-148.16;100.00;58328.31;4837641;29;20057;-60
2022/04/06 03:09:52;;;;;;;0.80;0.10;;;;;;;-148.16;100.00;58328.31;4821795;29;20537;-60
2022/04/06 03:12:37;;;;;;;0.68;0.25;;;;;;;-148.16;100.00;58328.31;4805145;29;20050;-65
2022/04/06 03:15:22;;;;;;;0.30;0.20;;;;;;;-148.16;100.00;58328.31;4824115;29;20189;-59
2022/04/06 03:18:06;;;;;;;0.47;0.10;;;;;;;-148.16;100.00;58328.31;4824533;29;20054;-63
2022/04/06 03:20:51;;;;;;;0.30;0.10;;;;;;;-148.16;100.00;58328.31;4838318;29;20052;-67
2022/04/06 03:23:38;;;;;;;1.58;0.20;;;;;;;-148.16;100.00;58328.31;4843398;29;20129;-62
2022/04/06 03:26:22;;;;;;;0.15;0.10;;;;;;;-148.16;100.00;58328.31;4842421;29;20065;-62
2022/04/06 03:29:07;;;;;;;0.47;0.20;;;;;;;-148.16;100.00;58328.31;4843079;29;20547;-62
2022/04/06 03:31:52;;;;;;;2.50;0.40;;;;;;;-148.16;100.00;58328.31;4842466;29;20054;-60
2022/04/06 03:34:37;;;;;;;1.80;0.38;;;;;;;-148.16;100.00;58328.31;4832898;29;20054;-60
2022/04/06 03:37:22;;;;;;;1.20;0.60;;;;;;;-148.16;100.00;58328.31;4791903;29;20118;-61
2022/04/06 03:40:08;;;;;;;0.57;0.50;;;;;;;-148.16;100.00;58328.31;4806164;29;20051;-62
2022/04/06 03:42:53;;;;;;;0.80;0.38;;;;;;;-148.16;100.00;58328.31;4790224;29;20062;-61
2022/04/06 03:45:58;;;;;;;0.93;0.30;;;;;;;-148.16;100.00;58328.31;4789693;29;20067;-61
2022/04/06 03:48:44;;;;;;;0.50;0.20;;;;;;;-148.16;100.00;58328.31;4805575;29;20082;-60
2022/04/06 03:51:29;;;;;;;0.22;0.17;;;;;;;-148.16;100.00;58328.31;4827747;29;20060;-62
2022/04/06 03:54:14;;;;;;;0.45;0.20;;;;;;;-148.16;100.00;58328.31;4842020;29;20049;-61
2022/04/06 03:56:59;;;;;;;0.73;0.13;;;;;;;-148.16;100.00;58328.31;4841952;29;20140;-62
2022/04/06 03:59:43;;;;;;;0.75;0.40;;;;;;;-148.16;100.00;58328.31;4842080;29;20559;-63
2022/04/06 04:02:28;;;;;;;0.17;0.10;;;;;;;-148.16;100.00;58328.31;4842020;29;20132;-62
2022/04/06 04:05:13;;;;;;;0.20;0.10;;;;;;;-148.16;100.00;58328.31;4828434;29;20117;-61
2022/04/06 04:08:01;;;;;;;0.40;0.20;;;;;;;-148.16;100.00;58328.31;4842822;29;20050;-62
2022/04/06 04:10:50;;;;;;;0.10;0.08;;;;;;;-148.16;100.00;58328.31;4829450;29;20136;-65
2022/04/06 04:13:35;;;;;;;0.30;0.20;;;;;;;-148.16;100.00;58328.31;4841869;29;20494;-62
2022/04/06 04:16:19;;;;;;;1.13;0.20;;;;;;;-148.16;100.00;58328.31;4841352;29;20046;-61
2022/04/06 04:19:08;;;;;;;0.32;0.20;;;;;;;-148.16;100.00;58328.31;4842163;29;20512;-60
2022/04/06 04:21:54;;;;;;;0.20;0.10;;;;;;;-148.16;100.00;58328.31;4814064;29;20406;-62
2022/04/06 04:24:39;;;;;;;0.30;0.20;;;;;;;-148.16;100.00;58328.31;4842146;29;20070;-62
2022/04/06 04:27:24;;;;;;;0.22;0.20;;;;;;;-148.16;100.00;58328.31;4805742;29;20115;-60
2022/04/06 04:30:10;;;;;;;0.45;0.30;;;;;;;-148.16;100.00;58328.31;4806272;29;20058;-60
2022/04/06 04:32:55;;;;;;;0.40;0.15;;;;;;;-148.16;100.00;58328.31;4792631;29;20051;-62
2022/04/06 04:35:39;;;;;;;0.30;0.17;;;;;;;-148.16;100.00;58328.31;4805571;29;20043;-62
2022/04/06 04:38:24;;;;;;;0.85;0.22;;;;;;;-148.16;100.00;58328.31;4805045;29;20050;-62
2022/04/06 04:41:09;;;;;;;0.20;0.17;;;;;;;-148.16;100.00;58328.31;4792054;29;20089;-61
2022/04/06 04:43:53;;;;;;;0.38;0.10;;;;;;;-148.16;100.00;58328.31;4805074;29;20051;-62
2022/04/06 04:46:38;;;;;;;0.25;0.10;;;;;;;-148.16;100.00;58328.31;4811520;29;20049;-61
2022/04/06 04:49:24;;;;;;;0.20;0.20;;;;;;;-148.16;100.00;58328.31;4824390;29;20522;-62
2022/04/06 04:52:09;;;;;;;1.27;0.10;;;;;;;-148.16;100.00;58328.31;4823198;29;20043;-62
2022/04/06 04:54:54;;;;;;;0.30;0.13;;;;;;;-148.16;100.00;58328.31;4796612;29;20508;-61
2022/04/06 04:57:39;;;;;;;0.43;0.28;;;;;;;-148.16;100.00;58328.31;4826575;29;20134;-61
2022/04/06 05:00:24;;;;;;;0.50;0.20;;;;;;;-148.16;100.00;58328.31;4826435;29;20085;-61
2022/04/06 05:03:08;;;;;;;0.20;0.20;;;;;;;-148.16;100.00;58328.31;4826531;29;20456;-61
2022/04/06 05:05:54;;;;;;;0.30;0.20;;;;;;;-148.16;100.00;58328.31;4826213;29;20134;-61
2022/04/06 05:08:39;;;;;;;0.30;0.20;;;;;;;-148.16;100.00;58328.31;4826561;29;20050;-61
2022/04/06 05:11:24;;;;;;;0.52;0.30;;;;;;;-148.16;100.00;58328.31;4826161;29;20082;-64
2022/04/06 05:14:09;;;;;;;0.28;0.10;;;;;;;-148.16;100.00;58328.31;4812439;29;20127;-63
2022/04/06 05:16:54;;;;;;;1.13;0.40;;;;;;;-148.16;100.00;58328.31;4826340;29;20058;-63
2022/04/06 05:19:38;;;;;;;1.40;0.38;;;;;;;-148.16;100.00;58328.31;4829866;29;20102;-62
2022/04/06 05:22:23;;;;;;;2.22;0.50;;;;;;;-148.16;100.00;58328.31;4810340;29;20069;-61
2022/04/06 05:25:08;;;;;;;1.83;0.40;;;;;;;-148.16;100.00;58328.31;4808398;29;20047;-62
2022/04/06 05:27:55;;;;;;;1.27;0.30;;;;;;;-148.16;100.00;58328.31;4808002;29;20051;-65
2022/04/06 05:30:41;;;;;;;0.35;0.13;;;;;;;-148.16;100.00;58328.31;4807977;29;20157;-63
2022/04/06 05:33:26;;;;;;;0.63;0.20;;;;;;;-148.16;100.00;58328.31;4796393;29;20426;-61
2022/04/06 05:36:11;;;;;;;1.25;0.20;;;;;;;-148.16;100.00;58328.31;4807425;29;20503;-61
2022/04/06 05:38:57;;;;;;;0.40;0.20;;;;;;;-148.16;100.00;58328.31;4794617;29;20442;-63
2022/04/06 05:41:42;;;;;;;1.02;0.40;;;;;;;-148.16;100.00;58328.31;4809777;29;20047;-63
2022/04/06 05:44:26;;;;;;;2.47;0.73;;;;;;;-148.16;100.00;58328.31;4811991;29;20602;-63
2022/04/06 05:47:13;;;;;;;1.48;0.30;;;;;;;-148.16;100.00;58328.31;4825596;29;20050;-63
2022/04/06 05:49:58;;;;;;;0.60;0.28;;;;;;;-148.16;100.00;58328.31;4811409;29;20455;-63
2022/04/06 05:52:43;;;;;;;0.80;0.40;;;;;;;-148.16;100.00;58328.31;4825636;29;20042;-64
2022/04/06 05:55:28;;;;;;;0.50;0.20;;;;;;;-148.16;100.00;58328.31;4815184;29;20499;-61
2022/04/06 05:58:14;;;;;;;0.70;0.30;;;;;;;-148.16;100.00;58328.31;4827038;29;20083;-62
2022/04/06 06:00:59;;;;;;;0.28;0.20;;;;;;;-148.16;100.00;58328.31;4825656;29;20086;-61
2022/04/06 06:03:43;;;;;;;0.70;0.10;;;;;;;-148.16;100.00;58328.31;4811676;29;20054;-63
2022/04/06 06:06:28;;;;;;;1.42;0.32;;;;;;;-148.16;100.00;58328.31;4824541;29;20049;-62
2022/04/06 06:09:12;;;;;;;0.70;0.20;;;;;;;-148.16;100.00;58328.31;4811440;29;20507;-63
2022/04/06 06:11:59;;;;;;;0.28;0.20;;;;;;;-148.16;100.00;58328.31;4825172;29;20054;-65
2022/04/06 06:14:44;;;;;;;0.20;0.20;;;;;;;-148.16;100.00;58328.31;4825299;29;20051;-63
2022/04/06 06:17:28;;;;;;;1.13;0.15;;;;;;;-148.16;100.00;58328.31;4811602;29;20075;-63
2022/04/06 06:20:13;;;;;;;1.00;0.28;;;;;;;-148.16;100.00;58328.31;4833338;29;20045;-64
2022/04/06 06:22:58;;;;;;;0.22;0.10;;;;;;;-148.16;100.00;58328.31;4816796;29;20113;-63
2022/04/06 06:25:43;;;;;;;0.43;0.20;;;;;;;-148.16;100.00;58328.31;4843440;29;20377;-64
2022/04/06 06:28:28;;;;;;;0.85;0.30;;;;;;;-148.16;100.00;58328.31;4829194;29;20046;-62
2022/04/06 06:31:12;;;;;;;0.40;0.30;;;;;;;-148.16;100.00;58328.31;4843398;29;20049;-66
2022/04/06 06:34:00;;;;;;;0.40;0.30;;;;;;;-148.16;100.00;58328.31;4829474;29;20054;-63
2022/04/06 06:36:45;;;;;;;2.03;0.10;;;;;;;-148.16;100.00;58328.31;4843273;29;20417;-63
2022/04/06 06:39:30;;;;;;;0.22;0.10;;;;;;;-148.16;100.00;58328.31;4842973;29;20054;-63
2022/04/06 06:42:15;;;;;;;0.30;0.10;;;;;;;-148.16;100.00;58328.31;4843102;29;20042;-63
2022/04/06 06:45:00;;;;;;;0.10;0.10;;;;;;;-148.16;100.00;58328.31;4829081;29;20053;-64
2022/04/06 06:47:45;;;;;;;0.55;0.10;;;;;;;-148.16;100.00;58328.31;4829251;29;20398;-63
2022/04/06 06:50:30;;;;;;;0.30;0.20;;;;;;;-148.16;100.00;58328.31;4842987;29;20154;-61
2022/04/06 06:53:15;;;;;;;0.10;0.10;;;;;;;-148.16;100.00;58328.31;4842542;29;20256;-61
2022/04/06 06:56:00;;;;;;;1.08;0.20;;;;;;;-148.16;100.00;58328.31;4842879;29;20070;-60
2022/04/06 06:58:44;;;;;;;0.20;0.10;;;;;;;-148.16;100.00;58328.31;4826678;29;20117;-63
2022/04/06 07:01:29;;;;;;;0.22;0.10;;;;;;;-148.16;100.00;58328.31;4823305;29;20054;-64
2022/04/06 07:04:14;;;;;;;0.35;0.20;;;;;;;-148.16;100.00;58328.31;4810452;29;20107;-62
2022/04/06 07:06:59;;;;;;;0.22;0.10;;;;;;;-148.16;100.00;58328.31;4823025;29;20106;-68
2022/04/06 07:09:44;;;;;;;0.55;0.20;;;;;;;-148.16;100.00;58328.31;4807955;29;20222;-73
2022/04/06 07:12:28;;;;;;;0.17;0.13;;;;;;;-148.16;100.00;58328.31;4822728;29;20049;-64
2022/04/06 07:15:14;;;;;;;0.43;0.22;;;;;;;-148.16;100.00;58328.31;4809728;29;20042;-63
2022/04/06 07:17:58;;;;;;;0.50;0.20;;;;;;;-148.16;100.00;58328.31;4822772;29;20055;-60
2022/04/06 07:20:43;;;;;;;0.30;0.17;;;;;;;-148.16;100.00;58328.31;4821423;29;20093;-63
2022/04/06 07:23:29;;;;;;;0.10;0.10;;;;;;;-148.16;100.00;58328.31;4841322;29;20056;-61
2022/04/06 07:26:16;;;;;;;0.38;0.10;;;;;;;-148.16;100.00;58328.31;4815585;29;20047;-62
2022/04/06 07:29:01;;;;;;;0.30;0.13;;;;;;;-148.16;100.00;58328.31;4814482;29;20156;-67
2022/04/06 07:31:46;;;;;;;1.85;0.22;;;;;;;-148.16;100.00;58328.31;4805909;29;20078;-63
2022/04/06 07:34:30;;;;;;;0.57;0.20;;;;;;;-148.16;100.00;58328.31;4805858;29;20055;-66
2022/04/06 07:37:15;;;;;;;0.45;0.10;;;;;;;-148.16;100.00;58328.31;4805754;29;20073;-66
2022/04/06 07:40:00;;;;;;;1.60;0.30;;;;;;;-148.16;100.00;58328.31;4805637;29;20051;-62
2022/04/06 07:42:46;;;;;;;0.10;0.08;;;;;;;-148.16;100.00;58328.31;4804988;29;20099;-67
2022/04/06 07:45:31;;;;;;;0.85;0.13;;;;;;;-148.16;100.00;58328.31;4789634;29;20097;-60
2022/04/06 07:48:15;;;;;;;0.82;0.20;;;;;;;-148.16;100.00;58328.31;4805226;29;20051;-64
2022/04/06 07:51:00;;;;;;;0.40;0.10;;;;;;;-148.16;100.00;58328.31;4805679;29;20459;-63
2022/04/06 07:53:45;;;;;;;0.28;0.20;;;;;;;-148.16;100.00;58328.31;4781977;29;20068;-63
2022/04/06 07:56:30;;;;;;;0.28;0.15;;;;;;;-148.16;100.00;58328.31;4794792;29;20501;-62
2022/04/06 07:59:14;;;;;;;0.20;0.10;;;;;;;-148.16;100.00;58328.31;4841157;29;20498;-61
2022/04/06 08:01:59;;;;;;;0.20;0.10;;;;;;;-148.16;100.00;58328.31;4828329;29;20050;-62
2022/04/06 08:04:44;;;;;;;0.68;0.20;;;;;;;-148.16;100.00;58328.31;4841642;29;20058;-63
2022/04/06 08:07:29;;;;;;;0.63;0.40;;;;;;;-148.16;100.00;58328.31;4828196;29;20092;-62
2022/04/06 08:10:16;;;;;;;2.10;0.20;;;;;;;-148.16;100.00;58328.31;4841894;29;20110;-61
2022/04/06 08:13:01;;;;;;;0.60;0.20;;;;;;;-148.16;100.00;58328.31;4842019;29;20083;-62
2022/04/06 08:15:45;;;;;;;0.38;0.10;;;;;;;-148.16;100.00;58328.31;4841638;29;20315;-63
2022/04/06 08:18:30;;;;;;;0.50;0.20;;;;;;;-148.16;100.00;58328.31;4841513;29;20418;-63
2022/04/06 08:21:15;;;;;;;0.38;0.17;;;;;;;-148.16;100.00;58328.31;4841347;29;20083;-62
2022/04/06 08:23:59;;;;;;;0.43;0.22;;;;;;;-148.16;100.00;58328.31;4841504;29;20042;-63
2022/04/06 08:26:44;;;;;;;1.08;0.20;;;;;;;-148.16;100.00;58328.31;4814739;29;20038;-62
2022/04/06 08:29:29;;;;;;;0.68;0.20;;;;;;;-148.16;100.00;58328.31;4841327;29;20125;-62
2022/04/06 08:32:14;;;;;;;1.38;0.13;;;;;;;-148.16;100.00;58328.31;4841465;29;20413;-63
2022/04/06 08:34:59;;;;;;;0.40;0.20;;;;;;;-148.16;100.00;58328.31;4841320;29;20490;-62
2022/04/06 08:37:44;;;;;;;0.35;0.20;;;;;;;-148.16;100.00;58328.31;4841276;29;20053;-63
2022/04/06 08:40:32;;;;;;;0.17;0.03;;;;;;;-148.16;100.00;58328.31;4841119;29;20054;-62
2022/04/06 08:43:17;;;;;;;0.32;0.20;;;;;;;-148.16;100.00;58328.31;4836571;29;20050;-61
2022/04/06 08:46:02;;;;;;;0.13;0.08;;;;;;;-148.16;100.00;58328.31;4812789;29;20050;-63
2022/04/06 08:48:48;;;;;;;0.73;0.00;;;;;;;-148.16;100.00;58328.31;4809422;29;20152;-63
2022/04/06 08:51:34;;;;;;;0.25;0.05;;;;;;;-148.16;100.00;58328.31;4822863;29;20066;-62
2022/04/06 08:54:19;;;;;;;0.28;0.13;;;;;;;-148.16;100.00;58328.31;4822706;29;20077;-62
2022/04/06 08:57:05;;;;;;;0.10;0.00;;;;;;;-148.16;100.00;58328.31;4791326;29;20047;-62
2022/04/06 08:59:49;;;;;;;0.57;0.00;;;;;;;-148.16;100.00;58328.31;4790900;29;20058;-62
2022/04/06 09:02:34;;;;;;;0.65;0.10;;;;;;;-148.16;100.00;58328.31;4798940;29;20050;-62
2022/04/06 09:05:21;;;;;;;1.13;0.15;;;;;;;-148.16;100.00;58328.31;4819810;29;20045;-60
2022/04/06 09:08:06;;;;;;;0.55;0.03;;;;;;;-148.16;100.00;58328.31;4821732;29;20114;-63
2022/04/06 09:10:51;;;;;;;0.10;0.03;;;;;;;-148.16;100.00;58328.31;4827115;29;20070;-61
2022/04/06 09:13:37;;;;;;;0.00;0.00;;;;;;;-148.16;100.00;58328.31;4782313;29;20084;-61
2022/04/06 09:16:21;;;;;;;0.30;0.10;;;;;;;-148.16;100.00;58328.31;4800050;29;20050;-61
2022/04/06 09:19:09;;;;;;;1.25;0.10;;;;;;;-148.16;100.00;58328.31;4810224;29;20053;-62
2022/04/06 09:21:55;;;;;;;0.00;0.00;;;;;;;-148.16;100.00;58328.31;4806432;29;20047;-61
2022/04/06 09:24:40;;;;;;;0.32;0.08;;;;;;;-148.16;100.00;58328.31;4799020;29;20184;-58
2022/04/06 09:27:32;;;;;;;0.47;0.05;;;;;;;-148.16;100.00;58328.31;4792913;29;20114;-60
2022/04/06 09:30:17;;;;;;;0.52;0.10;;;;;;;-148.16;100.00;58328.31;4795085;29;20041;-59
2022/04/06 09:33:03;;;;;;;0.68;0.10;;;;;;;-148.16;100.00;58328.31;4808983;29;20051;-59
2022/04/06 09:35:49;;;;;;;0.32;0.10;;;;;;;-148.16;100.00;58328.31;4809032;29;20058;-61
2022/04/06 09:38:33;;;;;;;0.28;0.10;;;;;;;-148.16;100.00;58328.31;4804381;29;20055;-60
2022/04/06 09:41:19;;;;;;;0.68;0.15;;;;;;;-148.16;100.00;58328.31;4805703;29;20051;-59
2022/04/06 09:44:08;;;;;;;0.40;0.10;;;;;;;-148.16;100.00;58328.31;4807765;29;20047;-59
2022/04/06 09:50:22;;;;;;;0.20;0.05;;;;;;;-148.16;100.00;58328.31;4820539;29;20042;-58
2022/04/06 09:53:07;;;;;;;0.13;0.10;;;;;;;-148.16;100.00;58328.31;4806211;29;20509;-60
2022/04/06 09:55:55;;;;;;;0.25;0.00;;;;;;;-148.16;100.00;58328.31;4804970;29;20103;-62
2022/04/06 09:58:41;;;;;;;0.10;0.10;;;;;;;-148.16;100.00;58328.31;4811538;29;20123;-58
2022/04/06 10:01:31;;;;;;;0.20;0.10;;;;;;;-148.16;100.00;58328.31;4810087;29;20054;-60
2022/04/06 10:04:21;;;;;;;0.30;0.03;;;;;;;-148.16;100.00;58328.31;4810651;29;20074;-61
2022/04/06 10:07:06;;;;;;;0.47;0.10;;;;;;;-148.16;100.00;58328.31;4806629;29;20681;-59
2022/04/06 10:09:52;;;;;;;0.30;0.10;;;;;;;-148.16;100.00;58328.31;4781210;29;20104;-60
2022/04/06 10:12:36;;;;;;;0.10;0.10;;;;;;;-148.16;100.00;58328.31;4797044;29;20411;-60
2022/04/06 10:15:24;;;;;;;0.65;0.10;;;;;;;-148.16;100.00;58328.31;4812848;29;20041;-59
2022/04/06 10:18:08;;;;;;;4.82;1.42;;;;;;;-148.16;100.00;58328.31;4810490;29;20447;-39
2022/04/06 10:21:12;;;;;;;0.30;0.10;;;;;;;-148.16;100.00;58328.31;4815353;29;20060;-41
2022/04/06 10:24:24;;;;;;;0.73;0.38;;;;;;;-148.16;100.00;58328.31;4817010;29;20058;-40
2022/04/06 10:27:29;;;;;;;1.13;0.20;;;;;;;-148.16;100.00;58328.31;4800307;29;20051;-40
2022/04/06 10:30:14;;;;;;;0.63;0.40;;;;;;;-148.16;100.00;58328.31;4812538;29;20051;-52
2022/04/06 10:32:59;;;;;;;0.60;0.40;;;;;;;-148.16;100.00;58328.31;4814647;29;20039;-58
2022/04/06 10:35:44;;;;;;;1.45;0.38;;;;;;;-148.16;100.00;58328.31;4806075;29;20095;-52
2022/04/06 10:38:29;;;;;;;0.57;0.20;;;;;;;-148.16;100.00;58328.31;4810079;29;20050;-51
2022/04/06 10:41:13;;;;;;;0.95;0.38;;;;;;;-148.16;100.00;58328.31;4818792;29;20049;-52
2022/04/06 10:43:58;;;;;;;1.17;0.40;;;;;;;-148.16;100.00;58328.31;4814936;29;20046;-51
2022/04/06 10:46:43;;;;;;;1.13;0.57;;;;;;;-148.16;100.00;58328.31;4809761;29;20050;-50
2022/04/06 10:49:27;;;;;;;0.93;0.40;;;;;;;-148.16;100.00;58328.31;4802024;29;20096;-49
2022/04/06 10:52:28;;;;;;;1.48;0.43;;;;;;;-148.16;100.00;58328.31;4809841;29;20126;-52
2022/04/06 10:55:24;;;;;;;0.88;0.30;;;;;;;-148.16;100.00;58328.31;4818214;29;20050;-53
2022/04/06 10:58:09;;;;;;;2.88;1.10;;;;;;;-148.16;100.00;58328.31;4821322;29;20571;-54
2022/04/06 11:01:16;;;;;;;30.02;17.92;;;;;;;-148.16;100.00;58328.31;4798483;29;20474;-48
2022/04/06 11:04:06;;;;;;;1.15;0.70;;;;;;;-148.16;100.00;58328.31;4824593;29;20042;-37
2022/04/06 11:06:56;;;;;;;0.60;0.40;;;;;;;-148.16;100.00;58328.31;4808232;29;20058;-62
2022/04/06 11:12:58;;;;;;;0.30;0.30;;;;;;;-148.16;100.00;58328.31;4810032;29;20061;-62
2022/04/06 11:15:51;;;;;;;1.35;0.60;;;;;;;-148.16;100.00;58328.31;4821040;29;20051;-60
2022/04/06 11:18:47;;;;;;;1.63;1.20;;;;;;;-148.16;100.00;58328.31;4812314;29;20091;-63
2022/04/06 11:21:33;;;;;;;2.40;1.48;;;;;;;-148.16;100.00;58328.31;4828848;29;20071;-61
2022/04/06 11:24:27;;;;;;;1.90;1.27;;;;;;;-148.16;100.00;58328.31;4842664;29;20050;-60
2022/04/06 11:27:32;;;;;;;1.83;1.13;;;;;;;-148.16;100.00;58328.31;4842556;29;20496;-63
2022/04/06 11:30:19;;;;;;;1.70;1.15;;;;;;;-148.16;100.00;58328.31;4829258;29;20037;-61
2022/04/06 11:33:05;;;;;;;1.92;1.17;;;;;;;-148.16;100.00;58328.31;4838090;29;20042;-61
2022/04/06 11:35:50;;;;;;;3.65;1.52;;;;;;;-148.16;100.00;58328.31;4811805;29;20066;-62
2022/04/06 11:38:36;;;;;;;4.93;1.30;;;;;;;-148.16;100.00;58328.31;4809298;29;20051;-62
2022/04/06 11:41:22;;;;;;;3.97;1.00;;;;;;;-148.16;100.00;58328.31;4801703;29;20035;-62
2022/04/06 11:44:06;;;;;;;2.78;1.40;;;;;;;-148.16;100.00;58328.31;4809702;29;20055;-61
2022/04/06 11:46:52;;;;;;;2.17;1.38;;;;;;;-148.16;100.00;58328.31;4811530;29;20050;-62
2022/04/06 11:49:37;;;;;;;2.80;1.65;;;;;;;-148.16;100.00;58328.31;4814040;29;20501;-62
2022/04/06 11:52:27;;;;;;;2.60;1.40;;;;;;;-148.16;100.00;58328.31;4818772;29;20499;-60
2022/04/06 11:55:13;;;;;;;2.90;1.77;;;;;;;-148.16;100.00;58328.31;4803766;29;20038;-60
2022/04/06 11:58:00;;;;;;;6.07;1.27;;;;;;;-148.16;100.00;58328.31;4821917;29;20099;-62
2022/04/06 12:00:57;;;;;;;1.13;0.88;;;;;;;-148.16;100.00;58328.31;4808083;29;20145;-62
2022/04/06 12:03:44;;;;;;;1.33;0.75;;;;;;;-148.16;100.00;58328.31;4781867;29;20058;-60
2022/04/06 12:06:36;;;;;;;2.53;1.10;;;;;;;-148.16;100.00;58328.31;4805055;29;20043;-63
2022/04/06 12:09:24;;;;;;;1.85;1.10;;;;;;;-148.16;100.00;58328.31;4796162;29;20042;-61
2022/04/06 12:12:08;;;;;;;3.83;1.10;;;;;;;-148.16;100.00;58328.31;4815289;29;20069;-62
2022/04/06 12:14:53;;;;;;;1.25;0.77;;;;;;;-148.16;100.00;58328.31;4813702;29;20038;-62
2022/04/06 12:17:39;;;;;;;1.17;0.50;;;;;;;-148.16;100.00;58328.31;4814610;29;20100;-62
2022/04/06 12:20:26;;;;;;;1.95;0.73;;;;;;;-148.16;100.00;58328.31;4816802;29;20053;-61
2022/04/06 12:23:11;;;;;;;1.50;0.85;;;;;;;-148.16;100.00;58328.31;4807414;29;20038;-62
2022/04/06 12:25:56;;;;;;;1.77;1.00;;;;;;;-148.16;100.00;58328.31;4819208;29;20533;-62
2022/04/06 12:28:58;;;;;;;2.40;0.73;;;;;;;-148.16;100.00;58328.31;4807394;29;20047;-62
2022/04/06 12:31:44;;;;;;;3.42;0.82;;;;;;;-148.16;100.00;58328.31;4804101;29;20047;-62
2022/04/06 12:34:33;;;;;;;2.70;1.15;;;;;;;-148.16;100.00;58328.31;4806194;29;20070;-61
2022/04/06 12:37:30;;;;;;;2.00;1.27;;;;;;;-148.16;100.00;58328.31;4798237;29;20385;-63
2022/04/06 12:40:23;;;;;;;4.05;1.50;;;;;;;-148.16;100.00;58328.31;4816558;29;20053;-61
2022/04/06 12:43:24;;;;;;;2.47;1.90;;;;;;;-148.16;100.00;58328.31;4821932;29;20070;-61
2022/04/06 12:46:09;;;;;;;;;;;;;;;-148.16;100.00;58328.31;4808688;29;20051;-60
2022/04/06 12:49:19;;;;;;;4.55;2.13;;;;;;;-148.16;100.00;58328.31;4816034;29;19952;-62